Stratmoor Hills, Colorado
Current Conditions -  °F | °C
As of 10:21 AM on Thursday 18 Dec 2014 (Local Time) from KCWN Reporting Station
Broken Clouds Broken Clouds  
Wind Chill: 34°   Ceiling: 900
Heat Index: 34°   Visibility: 10mi
Dew Point: 30°   Wind: 3mph
Humidity: 87%   Direction: NA
Pressure: 30.03"   Gusts: NA
Location:  38.7684°N, 104.872°W
Report Text: KCWN 181721Z AUTO VRB03KT 10SM BKN009 01/M01 A3003 RMK AO2
Loading
Personal Weather Stations






























Interactive Weather Map New forecast layout! Learn more

10-Day Weather Forecast

Advertisements
Track Severe Weather on mobile